createdAt,value
2022-11-24T09:19:21.194Z,56.75
2022-11-24T09:21:23.988Z,59.45
2022-11-24T09:23:26.633Z,73.30
2022-11-24T09:25:28.471Z,68.18
2022-11-24T09:27:30.274Z,56.30
2022-11-24T09:29:32.477Z,62.45
2022-11-24T09:31:36.778Z,49.08
2022-11-24T09:33:39.584Z,53.95
2022-11-24T09:35:41.410Z,49.92
2022-11-24T09:37:45.213Z,50.67
2022-11-24T09:39:47.040Z,56.97
2022-11-24T09:42:29.912Z,49.55
2022-11-24T09:45:10.565Z,56.33
2022-11-24T09:47:49.969Z,48.47
2022-11-24T09:50:04.467Z,57.88
2022-11-24T09:52:13.674Z,46.67
2022-11-24T09:54:28.357Z,57.92
2022-11-24T09:56:34.947Z,52.45
2022-11-24T09:58:49.191Z,56.30
2022-11-24T10:00:53.285Z,61.38
2022-11-24T10:02:55.134Z,53.65
2022-11-24T10:04:57.110Z,57.00
2022-11-24T10:06:58.958Z,57.97
2022-11-24T10:09:09.636Z,47.40
2022-11-24T10:11:20.108Z,50.42
2022-11-24T10:13:40.469Z,49.95
2022-11-24T10:15:45.413Z,54.88
2022-11-24T10:18:13.269Z,48.70
2022-11-24T10:20:36.560Z,45.00
2022-11-24T10:22:50.367Z,46.67
2022-11-24T10:24:54.999Z,48.55
2022-11-24T10:27:13.858Z,49.30
2022-11-24T10:29:21.478Z,49.75
2022-11-24T10:31:42.786Z,53.13
2022-11-24T10:33:46.360Z,52.10
2022-11-24T10:35:59.014Z,49.97
2022-11-24T10:38:19.862Z,49.38
2022-11-24T10:40:58.107Z,50.42
2022-11-24T10:43:00.892Z,50.10
2022-11-24T10:45:11.294Z,59.70
2022-11-24T10:47:23.030Z,52.42
2022-11-24T10:49:32.436Z,48.83
2022-11-24T10:51:48.133Z,48.75
2022-11-24T10:54:23.657Z,57.70
2022-11-24T10:56:25.506Z,55.40
2022-11-24T10:58:38.217Z,58.90
2022-11-24T11:00:40.390Z,62.67
2022-11-24T11:02:42.535Z,58.25
2022-11-24T11:06:46.261Z,63.13
2022-11-24T11:08:48.106Z,59.38
2022-11-24T11:11:04.276Z,63.25
2022-11-24T11:13:31.038Z,68.13
2022-11-24T11:15:33.238Z,66.88
2022-11-24T11:17:38.377Z,58.70
2022-11-24T11:19:52.363Z,76.93
2022-11-24T11:22:11.974Z,57.55
2022-11-24T11:24:18.607Z,59.47
2022-11-24T11:26:27.868Z,59.92
2022-11-24T11:28:30.318Z,61.28
2022-11-24T11:35:20.969Z,52.30
2022-11-24T11:37:31.246Z,65.18
2022-11-24T11:39:48.874Z,47.42
2022-11-24T11:42:01.224Z,55.88
2022-11-24T11:44:29.091Z,46.83
2022-11-24T11:46:33.228Z,56.97
2022-11-24T11:48:43.297Z,53.40
2022-11-24T11:51:21.711Z,62.58
2022-11-24T11:53:16.919Z,62.10
2022-11-24T11:55:45.268Z,63.17
2022-11-24T11:58:20.081Z,56.72
2022-11-24T12:00:23.767Z,47.88
2022-11-24T12:02:51.544Z,58.28
2022-11-24T12:05:25.573Z,66.82
2022-11-24T12:07:43.640Z,64.15
2022-11-24T12:10:15.121Z,49.15
2022-11-24T12:12:35.482Z,62.83
2022-11-24T12:15:03.474Z,72.38
2022-11-24T12:17:18.958Z,72.32
2022-11-24T12:19:49.368Z,61.05
2022-11-24T12:22:02.859Z,63.40
2022-11-24T12:24:43.217Z,48.63
2022-11-24T12:27:03.053Z,59.88
2022-11-24T12:29:24.638Z,59.78
2022-11-24T12:31:45.815Z,63.22
2022-11-24T12:34:38.815Z,78.53
2022-11-24T12:37:08.564Z,68.10
2022-11-24T12:39:57.835Z,62.35
2022-11-24T12:42:28.189Z,77.10
2022-11-24T12:45:00.098Z,67.45
2022-11-24T12:47:32.320Z,65.17
2022-11-24T12:49:51.269Z,58.58
2022-11-24T12:52:24.083Z,71.03
2022-11-24T12:57:03.275Z,58.60
2022-11-24T12:59:37.171Z,87.07
2022-11-24T13:02:04.480Z,81.07
2022-11-24T13:04:28.559Z,81.85
2022-11-24T13:06:52.266Z,74.93
2022-11-24T13:09:01.344Z,103.57
2022-11-24T13:11:26.869Z,84.57
2022-11-24T13:14:00.419Z,65.25
2022-11-24T13:18:57.922Z,112.68
2022-11-24T13:21:06.454Z,84.22
2022-11-24T13:23:32.305Z,81.60
2022-11-24T13:25:36.624Z,69.63
2022-11-24T13:27:50.088Z,78.78
2022-11-24T13:29:53.673Z,70.28
2022-11-24T13:32:06.163Z,75.47
2022-11-24T13:34:48.251Z,72.10
2022-11-24T13:36:55.723Z,82.18
2022-11-24T13:39:22.786Z,81.32
2022-11-24T13:41:59.318Z,79.72
2022-11-24T16:34:41.698Z,98.27
2022-11-24T16:36:46.144Z,133.43
2022-11-24T16:38:56.504Z,96.50
2022-11-24T16:41:01.147Z,131.57
2022-11-24T16:45:24.785Z,130.20
2022-11-24T16:47:30.386Z,118.97
2022-11-24T16:49:34.786Z,143.20
2022-11-24T16:51:44.614Z,133.45
2022-11-24T16:53:49.403Z,134.52
2022-11-24T16:55:58.867Z,112.38
2022-11-24T16:58:06.102Z,125.55
2022-11-24T17:00:13.081Z,129.90
2022-11-24T17:02:16.446Z,125.00
2022-11-24T17:04:21.151Z,134.20
2022-11-24T17:06:28.647Z,116.22
2022-11-24T17:08:34.246Z,150.30
2022-11-24T17:10:42.436Z,122.85
2022-11-24T17:12:51.846Z,142.88
2022-11-24T17:15:24.574Z,147.68
2022-11-24T17:17:29.375Z,149.20
2022-11-24T17:19:33.666Z,142.80
2022-11-24T17:21:37.372Z,138.98
2022-11-24T17:23:42.540Z,143.68
2022-11-24T17:25:45.958Z,141.27
2022-11-24T17:27:52.112Z,150.27
2022-11-24T17:30:01.426Z,146.60
2022-11-24T17:32:06.362Z,177.20
2022-11-24T17:34:13.811Z,137.75
2022-11-24T17:36:17.078Z,161.00
2022-11-24T17:38:22.432Z,171.52
2022-11-24T17:40:29.922Z,174.02
2022-11-24T17:42:34.913Z,152.00
2022-11-24T17:44:42.737Z,187.13
2022-11-24T17:46:45.722Z,162.13
2022-11-24T17:48:49.196Z,165.65
2022-11-24T17:51:04.500Z,163.43
2022-11-24T17:53:14.297Z,160.40
2022-11-24T17:55:18.851Z,220.82
2022-11-24T17:57:24.842Z,203.75
2022-11-24T17:59:29.671Z,224.38
2022-11-24T18:01:45.820Z,221.30
2022-11-24T20:20:05.361Z,303.30
2022-11-24T20:22:07.645Z,402.75
2022-11-24T20:24:19.203Z,250.27
2022-11-24T20:26:23.239Z,469.83
2022-11-24T20:28:25.106Z,310.55
2022-11-24T20:30:27.046Z,241.77
2022-11-24T20:32:29.050Z,232.07
2022-11-24T20:34:31.226Z,221.75
2022-11-24T20:36:34.841Z,359.67
2022-11-24T20:38:38.237Z,321.40
2022-11-24T20:40:40.101Z,247.00
2022-11-24T20:42:42.018Z,443.30
2022-11-24T20:44:44.098Z,363.70
2022-11-24T20:48:49.501Z,243.73
2022-11-24T20:50:51.685Z,226.93
2022-11-24T20:52:53.656Z,234.02
2022-11-24T20:54:55.700Z,301.85
2022-11-24T20:59:00.212Z,237.97
2022-11-24T21:01:10.140Z,307.70
2022-11-24T21:03:12.091Z,251.57
2022-11-24T21:05:13.977Z,180.90
2022-11-24T21:07:16.188Z,215.65
2022-11-24T21:09:18.736Z,211.05
2022-11-24T21:11:22.192Z,185.93
2022-11-24T21:13:24.588Z,300.15
2022-11-24T21:15:27.881Z,230.95
2022-11-24T21:17:32.639Z,269.05
2022-11-24T21:19:34.794Z,284.25
2022-11-24T21:23:39.455Z,311.77
2022-11-24T21:25:44.950Z,202.40
2022-11-24T21:27:46.817Z,337.58
2022-11-24T21:29:48.664Z,219.60
2022-11-24T21:31:50.758Z,224.00
2022-11-24T21:36:05.173Z,271.02
2022-11-24T21:38:07.768Z,226.20
2022-11-24T21:40:10.148Z,215.70
2022-11-24T21:42:11.956Z,328.95
2022-11-24T21:44:14.552Z,341.83
2022-11-24T21:46:17.073Z,233.13
2022-11-24T21:48:19.169Z,162.68
2022-11-24T21:52:22.856Z,296.90
2022-11-24T21:54:24.884Z,281.13
2022-11-24T21:58:29.170Z,210.47
2022-11-24T22:00:31.014Z,194.50
2022-11-24T22:02:33.028Z,154.40
2022-11-24T22:04:35.231Z,201.48
2022-11-24T22:06:37.343Z,194.82
2022-11-24T22:08:39.575Z,219.13
2022-11-24T22:10:41.793Z,214.60
2022-11-24T22:12:44.320Z,180.80
2022-11-24T22:14:46.495Z,295.20
2022-11-24T22:16:48.470Z,196.55
2022-11-24T22:20:56.350Z,221.57
2022-11-24T22:22:58.360Z,199.05
2022-11-24T22:25:00.252Z,253.77
2022-11-24T22:27:03.001Z,201.85
2022-11-24T22:29:04.938Z,191.65
2022-11-24T22:31:12.170Z,232.80
2022-11-24T22:33:14.210Z,183.57
2022-11-24T22:35:16.198Z,163.88
2022-11-24T22:37:18.079Z,231.25
2022-11-24T22:39:19.912Z,195.65
2022-11-24T22:41:21.969Z,412.45
2022-11-24T22:43:23.785Z,269.50
2022-11-24T22:45:25.828Z,228.38
2022-11-24T22:47:27.772Z,181.13
2022-11-24T22:49:30.639Z,221.30
2022-11-24T22:51:34.675Z,396.35
2022-11-24T22:53:37.185Z,260.98
2022-11-24T22:55:39.092Z,166.43
2022-11-24T22:57:43.811Z,202.07
2022-11-24T22:59:49.398Z,160.32
2022-11-24T23:01:51.193Z,155.18
2022-11-24T23:03:54.638Z,158.68
2022-11-24T23:06:00.522Z,182.85
2022-11-24T23:08:02.362Z,225.35
2022-11-24T23:10:04.396Z,191.05
2022-11-24T23:12:06.440Z,176.38
2022-11-24T23:16:17.451Z,167.80
2022-11-24T23:18:19.343Z,159.90
2022-11-24T23:20:21.187Z,162.90
2022-11-24T23:22:23.031Z,175.13
2022-11-24T23:24:26.237Z,140.07
2022-11-24T23:26:33.985Z,194.55
2022-11-24T23:28:36.705Z,166.43
2022-11-24T23:30:38.599Z,179.10
2022-11-24T23:32:40.453Z,165.85
2022-11-24T23:34:42.271Z,178.07
2022-11-24T23:36:44.113Z,176.07
2022-11-24T23:38:46.315Z,207.77
2022-11-24T23:42:50.045Z,163.00
2022-11-24T23:44:51.884Z,183.70
2022-11-24T23:46:53.722Z,183.45
2022-11-24T23:48:56.189Z,181.07
2022-11-24T23:51:02.807Z,177.73
2022-11-24T23:53:04.668Z,183.35
2022-11-24T23:55:06.881Z,177.82
2022-11-24T23:57:08.693Z,162.93
2022-11-24T23:59:12.274Z,156.70
